Карта
Морски нива
Данни за вълнение
Данни за вълнение 1
Пункт Вятър (m/s) Порив (m/s) Посока Вятър (kn) Порив (kn) Температура Налягане Влажност Последно обновяване Видимост Последно обновяване (видимост)
6.7 8 10.4 13.02 15.55 17.9 1014.2 74.8 25/05/24 20:11 20000 25/05/24 20:11
5.7 6.7 357.2 11.08 13.02 17.9 1010.5 87.3 25/05/24 20:11 20000 25/05/24 20:11
3.2 5.6 15.7 6.22 10.89 17.9 993.0 74.3 25/05/24 20:11 19089 25/05/24 20:11
5.9 6.7 48.3 11.47 13.02 20.6 1014.7 54.1 25/05/24 20:11 20000 25/05/24 20:11
4.5 6.6 74.4 8.75 12.83 20.5 1013.7 56.8 25/05/24 20:11 20000 25/05/24 20:11
4.0 5.4 55.9 7.78 10.5 20.7 1014.0 49.2 25/05/24 20:11 N/A N/A
1.8 3.9 51.4 3.5 7.58 20.9 1013.4 50.4 25/05/24 20:11 N/A N/A
3.0 5.7 16.4 5.83 11.08 20.9 1014.1 55.5 25/05/24 20:11 20000 25/05/24 20:11
2.6 5.5 58.2 5.05 10.69 N/A N/A N/A 25/05/24 20:11 N/A N/A
2.4 4.6 54.3 4.67 8.94 20.6 1015.1 49.5 25/05/24 20:11 20000 25/05/24 20:11
3.8 5.6 65.9 7.39 10.89 20.9 1014.3 47.0 25/05/24 20:11 N/A N/A
2.3 3.9 60.7 4.47 7.58 20.9 1013.7 50.9 25/05/24 20:11 20000 25/05/24 20:11
1.6 2.9 112.3 3.11 5.64 21.2 1013.8 52.9 25/05/24 20:11 20000 25/05/24 20:11
6.4 8.7 55.9 12.44 16.91 20.6 1011.6 46.7 25/05/24 20:11 N/A N/A
6.1 8.4 4.0 11.86 16.33 17.0 990.9 85.4 25/05/24 20:11 20000 25/05/24 20:10
7.0 8.6 19.8 13.61 16.72 15.4 986.2 87.2 25/05/24 20:11 19627 25/05/24 20:11
5.0 6.4 78.1 9.72 12.44 18.9 1016.0 65.1 25/05/24 20:11 14857 25/05/24 20:11
6.5 7.7 82.3 12.64 14.97 18.4 1013.5 74.2 25/05/24 20:11 16084 25/05/24 20:11
6.3 7.7 85.2 12.25 14.97 18.4 1014.4 66.9 25/05/24 20:11 20000 25/05/24 20:10
2.1 5.5 21.4 4.08 10.69 18.0 1015.3 85.0 25/05/24 20:11 19195 25/05/24 20:11
1.3 2.5 349.6 2.53 4.86 15.4 991.1 100.0 25/05/24 20:11 19934 25/05/24 20:11
6.8 8 7.8 13.22 15.55 16.6 1011.7 81.0 25/05/24 20:11 15487 25/05/24 20:11